This is the latest recevied weather packets stored in our database for station/object SV2RIM-2. If no packets are shown the sender has not sent any weather packets the latest 10 day(s).
| Time | Temp. | Humidity | Pressure | Rain* | Wind** | Luminosity | Snow |
|---|---|---|---|---|---|---|---|
| 1777104319 | 21.67° C | 41% | 1015.6 hPa | - | - | - | - |
| 1777103719 | 21.11° C | 41% | 1015.7 hPa | - | - | - | - |
| 1777103119 | 21.11° C | 41% | 1015.6 hPa | - | - | - | - |
| 1777102519 | 21.11° C | 40% | 1015.6 hPa | - | - | - | - |
| 1777101919 | 20.56° C | 41% | 1015.6 hPa | - | - | - | - |
| 1777101319 | 21.11° C | 39% | 1015.6 hPa | - | - | - | - |
| 1777100719 | 20.56° C | 39% | 1015.4 hPa | - | - | - | - |
| 1777100119 | 20.56° C | 39% | 1015.5 hPa | - | - | - | - |
| 1777099519 | 20.56° C | 38% | 1015.4 hPa | - | - | - | - |
| 1777098919 | 19.44° C | 40% | 1015.5 hPa | - | - | - | - |
| 1777098319 | 17.22° C | 44% | 1015.5 hPa | - | - | - | - |
| 1777097719 | 16.11° C | 47% | 1015.6 hPa | - | - | - | - |
| 1777097119 | 16.11° C | 45% | 1015.4 hPa | - | - | - | - |
| 1777096519 | 15.56° C | 47% | 1015.3 hPa | - | - | - | - |
| 1777095919 | 15.56° C | 46% | 1015.2 hPa | - | - | - | - |
| 1777095319 | 15° C | 46% | 1015.2 hPa | - | - | - | - |
| 1777094719 | 14.44° C | 48% | 1015.2 hPa | - | - | - | - |
| 1777094119 | 11.67° C | 55% | 1015.3 hPa | - | - | - | - |
| 1777093519 | 11.11° C | 56% | 1015.1 hPa | - | - | - | - |
| 1777092919 | 10.56° C | 57% | 1015 hPa | - | - | - | - |
| 1777092319 | 10.56° C | 57% | 1015.1 hPa | - | - | - | - |
| 1777091719 | 10° C | 57% | 1015 hPa | - | - | - | - |
| 1777091119 | 9.44° C | 58% | 1015 hPa | - | - | - | - |
| 1777090519 | 8.89° C | 59% | 1015 hPa | - | - | - | - |
| 1777089919 | 8.89° C | 59% | 1015.1 hPa | - | - | - | - |
* Rain since midnight (hover to see other rain measurements)
** Current wind speed in m/s (hover to see current wind gust speed)